createdAt,value
2022-12-23T00:01:27.179Z,98577.88
2022-12-23T00:06:29.514Z,98583.23
2022-12-23T00:11:31.801Z,98590.15
2022-12-23T00:16:38.186Z,98597.34
2022-12-23T00:21:40.263Z,98604.38
2022-12-23T00:26:42.460Z,98602.23
2022-12-23T00:31:44.745Z,98604.39
2022-12-23T00:36:49.273Z,98611.45
2022-12-23T00:42:09.998Z,98610.20
2022-12-23T00:47:32.038Z,98617.21
2022-12-23T00:52:34.122Z,98618.34
2022-12-23T00:57:36.206Z,98626.94
2022-12-23T01:02:57.694Z,98629.63
2022-12-23T01:08:00.037Z,98635.77
2022-12-23T01:13:02.318Z,98626.06
2022-12-23T01:18:04.722Z,98622.10
2022-12-23T01:23:07.300Z,98624.40
2022-12-23T01:28:09.586Z,98625.46
2022-12-23T01:33:11.772Z,98631.65
2022-12-23T01:38:14.378Z,98632.34
2022-12-23T01:43:18.391Z,98638.48
2022-12-23T01:48:27.236Z,98645.98
2022-12-23T01:53:32.963Z,98650.34
2022-12-23T01:58:38.429Z,98657.89
2022-12-23T02:03:43.662Z,98656.10
2022-12-23T02:09:04.808Z,98659.63
2022-12-23T02:14:47.581Z,98659.87
2022-12-23T02:20:14.156Z,98663.20
2022-12-23T02:25:43.251Z,98659.79
2022-12-23T02:30:58.602Z,98653.30
2022-12-23T02:36:13.833Z,98656.23
2022-12-23T02:41:38.238Z,98656.70
2022-12-23T02:47:09.197Z,98657.13
2022-12-23T02:52:18.044Z,98658.18
2022-12-23T02:57:26.880Z,98658.17
2022-12-23T03:02:33.860Z,98670.27
2022-12-23T03:07:41.974Z,98674.81
2022-12-23T03:12:53.095Z,98667.54
2022-12-23T03:17:58.244Z,98655.54
2022-12-23T03:23:29.716Z,98656.18
2022-12-23T03:28:37.635Z,98659.98
2022-12-23T03:33:44.735Z,98665.95
2022-12-23T03:38:49.689Z,98663.50
2022-12-23T03:44:08.766Z,98668.33
2022-12-23T03:49:19.353Z,98675.50
2022-12-23T04:00:07.097Z,98666.64
2022-12-23T04:05:15.777Z,98667.12
2022-12-23T04:10:20.770Z,98670.23
2022-12-23T04:15:25.676Z,98671.60
2022-12-23T04:20:27.848Z,98668.42
2022-12-23T04:25:30.145Z,98660.66
2022-12-23T04:30:34.559Z,98658.55
2022-12-23T04:35:37.374Z,98659.57
2022-12-23T04:40:39.556Z,98666.51
2022-12-23T04:45:41.844Z,98670.96
2022-12-23T04:50:44.028Z,98668.24
2022-12-23T04:55:50.719Z,98676.81
2022-12-23T05:01:05.101Z,98679.12
2022-12-23T05:06:07.189Z,98676.71
2022-12-23T05:11:09.458Z,98671.55
2022-12-23T05:16:11.827Z,98669.63
2022-12-23T05:21:14.956Z,98668.95
2022-12-23T05:26:17.245Z,98669.87
2022-12-23T05:31:19.440Z,98671.94
2022-12-23T05:36:21.605Z,98675.60
2022-12-23T05:41:23.995Z,98683.80
2022-12-23T05:46:27.148Z,98676.55
2022-12-23T05:51:29.592Z,98675.10
2022-12-23T05:56:31.792Z,98674.66
2022-12-23T06:01:34.056Z,98675.23
2022-12-23T06:06:36.452Z,98687.98
2022-12-23T06:11:38.533Z,98693.40
2022-12-23T06:16:40.759Z,98696.88
2022-12-23T06:21:43.013Z,98697.42
2022-12-23T06:26:45.084Z,98708.39
2022-12-23T06:31:49.716Z,98707.03
2022-12-23T06:36:51.917Z,98708.61
2022-12-23T06:41:54.098Z,98717.23
2022-12-23T06:46:56.289Z,98718.11
2022-12-23T06:51:58.582Z,98711.55
2022-12-23T06:57:00.752Z,98722.00
2022-12-23T07:02:03.565Z,98724.09
2022-12-23T07:07:05.734Z,98726.16
2022-12-23T07:12:07.920Z,98722.80
2022-12-23T07:17:10.064Z,98726.48
2022-12-23T07:22:12.506Z,98732.01
2022-12-23T07:27:14.786Z,98731.62
2022-12-23T07:32:17.166Z,98726.87
2022-12-23T07:37:19.349Z,98726.80
2022-12-23T07:47:43.995Z,98735.35
2022-12-23T07:52:46.182Z,98738.65
2022-12-23T07:57:54.510Z,98742.83
2022-12-23T08:02:56.769Z,98740.84
2022-12-23T08:07:59.386Z,98742.93
2022-12-23T08:13:01.582Z,98732.48
2022-12-23T08:18:04.167Z,98729.52
2022-12-23T08:23:06.352Z,98724.60
2022-12-23T08:28:08.535Z,98726.56
2022-12-23T08:33:10.726Z,98738.14
2022-12-23T08:38:12.904Z,98743.52
2022-12-23T08:43:15.293Z,98744.79
2022-12-23T08:48:17.579Z,98745.91
2022-12-23T08:53:19.817Z,98748.36
2022-12-23T08:58:22.052Z,98751.36
2022-12-23T09:03:24.301Z,98743.19
2022-12-23T09:08:26.724Z,98743.37
2022-12-23T09:13:35.230Z,98741.61
2022-12-23T09:18:38.570Z,98741.38
2022-12-23T09:23:41.369Z,98742.15
2022-12-23T09:28:43.555Z,98739.01
2022-12-23T09:33:50.754Z,98739.26
2022-12-23T09:38:57.872Z,98736.27
2022-12-23T09:44:13.884Z,98735.68
2022-12-23T09:49:18.989Z,98731.61
2022-12-23T09:54:24.702Z,98731.66
2022-12-23T09:59:29.948Z,98733.11
2022-12-23T10:04:59.469Z,98732.52
2022-12-23T10:10:14.454Z,98726.48
2022-12-23T10:15:34.480Z,98721.96
2022-12-23T10:20:58.448Z,98717.22
2022-12-23T10:26:09.339Z,98712.00
2022-12-23T10:37:02.621Z,98690.39
2022-12-23T10:42:10.983Z,98689.42
2022-12-23T10:47:46.957Z,98686.33
2022-12-23T10:52:51.824Z,98689.11
2022-12-23T10:57:59.628Z,98680.30
2022-12-23T11:03:07.469Z,98673.64
2022-12-23T11:08:10.855Z,98667.52
2022-12-23T11:13:25.535Z,98662.92
2022-12-23T11:18:27.709Z,98658.73
2022-12-23T11:23:33.078Z,98657.45
2022-12-23T11:28:39.673Z,98649.39
2022-12-23T11:33:55.491Z,98643.05
2022-12-23T11:39:06.451Z,98643.27
2022-12-23T11:44:16.417Z,98637.17
2022-12-23T11:49:31.145Z,98635.34
2022-12-23T11:54:33.794Z,98635.83
2022-12-23T11:59:40.276Z,98640.05
2022-12-23T12:04:42.776Z,98654.79
2022-12-23T12:09:46.737Z,98655.70
2022-12-23T12:14:55.125Z,98661.91
2022-12-23T12:20:11.580Z,98668.56
2022-12-23T12:25:23.250Z,98668.09
2022-12-23T12:30:32.852Z,98661.83
2022-12-23T12:35:53.958Z,98663.46
2022-12-23T12:41:08.509Z,98666.18
2022-12-23T12:46:19.850Z,98668.00
2022-12-23T12:51:36.947Z,98669.61
2022-12-23T12:56:49.756Z,98665.53
2022-12-23T13:02:07.051Z,98661.90
2022-12-23T13:07:26.912Z,98661.18
2022-12-23T13:13:07.393Z,98667.00
2022-12-23T13:18:16.951Z,98673.83
2022-12-23T13:23:43.614Z,98671.14
2022-12-23T13:29:24.502Z,98675.11
2022-12-23T13:34:45.225Z,98677.89
2022-12-23T13:39:57.447Z,98664.41
2022-12-23T13:45:02.123Z,98666.61
2022-12-23T13:50:19.024Z,98664.06
2022-12-23T13:55:43.015Z,98670.63
2022-12-23T14:00:45.599Z,98670.73
2022-12-23T14:05:50.294Z,98665.70
2022-12-23T14:11:31.590Z,98666.15
2022-12-23T14:16:49.185Z,98663.98
2022-12-23T14:22:13.288Z,98664.34
2022-12-23T14:27:40.667Z,98659.77
2022-12-23T14:32:45.819Z,98667.41
2022-12-23T14:38:16.469Z,98667.91
2022-12-23T14:43:32.278Z,98664.56
2022-12-23T14:48:34.422Z,98663.33
2022-12-23T14:53:53.331Z,98676.77
2022-12-23T14:59:07.808Z,98679.94
2022-12-23T15:04:12.959Z,98684.98
2022-12-23T15:09:47.811Z,98688.88
2022-12-23T15:14:54.702Z,98691.04
2022-12-23T15:20:16.579Z,98698.23
2022-12-23T15:25:21.192Z,98696.54
2022-12-23T15:30:24.931Z,98692.29
2022-12-23T15:35:31.592Z,98689.90
2022-12-23T15:40:35.085Z,98699.33
2022-12-23T15:45:42.035Z,98707.18
2022-12-23T15:50:44.071Z,98717.75
2022-12-23T15:55:48.420Z,98726.71
2022-12-23T16:00:51.907Z,98723.54
2022-12-23T16:05:54.079Z,98721.44
2022-12-23T16:11:05.020Z,98722.12
2022-12-23T16:16:33.762Z,98726.09
2022-12-23T16:21:36.670Z,98727.11
2022-12-23T16:26:42.455Z,98732.30
2022-12-23T16:31:51.230Z,98734.31
2022-12-23T16:36:57.884Z,98724.84
2022-12-23T16:41:59.846Z,98729.25
2022-12-23T16:47:07.820Z,98728.27
2022-12-23T16:52:13.649Z,98726.98
2022-12-23T16:57:15.617Z,98732.59
2022-12-23T17:02:24.337Z,98744.20
2022-12-23T17:07:26.960Z,98747.20
2022-12-23T17:12:28.932Z,98749.40
2022-12-23T17:17:31.365Z,98746.05
2022-12-23T17:22:39.520Z,98738.60
2022-12-23T17:28:15.066Z,98749.02
2022-12-23T17:33:35.008Z,98750.95
2022-12-23T17:38:39.510Z,98749.05
2022-12-23T17:43:41.406Z,98754.39
2022-12-23T17:48:46.379Z,98756.23
2022-12-23T17:53:56.812Z,98742.93
2022-12-23T17:58:59.313Z,98731.73
2022-12-23T18:04:01.259Z,98734.10
2022-12-23T18:09:03.372Z,98733.19
